Aldan, Pennsylvania
Current Conditions -  °F | °C
As of 12:54 PM on Friday 21 Nov 2014 (Local Time) from KPHL Reporting Station
Few Clouds Few Clouds  
Wind Chill: 25°   Ceiling: Unl
Heat Index: 36°   Visibility: 10mi
Dew Point:   Wind: 20mph
Humidity: 30%   Direction: 300°WNW
Pressure: 30.38"   Gusts: 26mph
Location:  39.9228°N, 75.2984°W
Report Text: KPHL 211754Z 30017G23KT 10SM FEW065 02/M14 A3038 RMK AO2 SLP285 T00221139 10022 21022 53001 $
Loading
Personal Weather Stations






























Interactive Weather Map New forecast layout! Learn more

10-Day Weather Forecast

Advertisements
Track Severe Weather on mobile